Latest Weather Observations for Snowtown

IDS60801

Issued at 6:31 am CST Monday 16 September 2019 (issued every 10 minutes, with the page automatically refreshed every 10 minutes)

About weather observations | Map of weather stations | Latest weather observations for SA | Other Formats
Station Details ID: 021133 Name: RAYVILLE PARK Lat: -33.77 Lon: 138.22 Height: 109.1 m
Data from the previous 72 hours. | See also: Recent months at Snowtown
Date/Time
CST
Temp
°C
App
Temp
°C
Dew
Point
°C
Rel
Hum
%
Delta-T
°C
Wind Press
QNH
hPa
Press
MSL
hPa
Rain since
9am
mm
Dir  Spd
km/h
Gust
km/h
Spd
kts
Gust
kts
16/06:30am 12.1 7.8 8.0 76 2.0 S 20 26 11 14 1019.8 1019.8 0.0
16/06:00am 12.3 8.2 8.6 78 1.8 SSE 20 26 11 14 1019.9 1019.9 0.0
16/05:30am 12.2 7.2 8.1 76 2.0 S 24 32 13 17 1019.9 1019.9 0.0
16/05:00am 12.3 7.4 8.4 77 1.9 S 24 30 13 16 1019.5 1019.5 0.0
16/04:30am 12.4 7.2 8.7 78 1.8 S 26 37 14 20 1018.7 1018.7 0.0
16/04:00am 12.3 8.5 9.9 85 1.2 S 20 30 11 16 1018.6 1018.6 0.0
16/03:30am 11.5 8.6 9.8 89 0.9 S 15 19 8 10 1017.8 1017.8 0.0
16/03:00am 12.1 8.4 10.3 89 0.9 S 20 28 11 15 1018.1 1018.1 0.0
16/02:30am 12.5 8.9 10.7 89 0.9 S 20 24 11 13 1018.2 1018.2 0.0
16/02:00am 13.2 9.1 11.3 88 1.0 S 24 32 13 17 1018.0 1018.0 0.0
16/01:30am 13.3 10.1 11.2 87 1.1 S 19 28 10 15 1018.5 1018.5 0.0
16/01:00am 13.4 8.6 11.6 89 1.0 S 28 39 15 21 1018.6 1018.6 0.0
16/12:30am 13.5 9.1 11.7 89 1.0 S 26 35 14 19 1018.0 1018.0 0.0
16/12:00am 13.8 9.9 12.2 90 0.9 SSW 24 33 13 18 1017.8 1017.8 0.0
 
Date/Time
CST
Temp
°C
App
Temp
°C
Dew
Point
°C
Rel
Hum
%
Delta-T
°C
Wind Press
QNH
hPa
Press
MSL
hPa
Rain since
9am
mm
Dir  Spd
km/h
Gust
km/h
Spd
kts
Gust
kts
15/11:30pm 13.1 10.9 12.0 93 0.6 SSW 15 19 8 10 1017.8 1017.8 0.0
15/11:00pm 13.1 9.9 11.3 89 1.0 SSW 19 24 10 13 1017.4 1017.4 0.0
15/10:30pm 12.9 10.3 10.8 87 1.1 SW 15 19 8 10 1017.6 1017.6 0.0
15/10:00pm 14.2 10.9 11.0 81 1.7 SSW 19 26 10 14 1017.7 1017.7 0.0
15/09:30pm 15.4 11.3 10.0 70 2.8 SSW 22 30 12 16 1017.7 1017.7 0.0
15/09:00pm 17.4 12.7 7.7 53 4.9 SSW 22 30 12 16 1017.5 1017.5 0.0
15/08:30pm 18.6 14.1 7.1 47 5.8 SSW 20 28 11 15 1017.0 1017.0 0.0
15/08:00pm 20.7 15.8 3.9 33 8.1 SSW 19 24 10 13 1016.7 1016.7 0.0
15/07:30pm 20.7 16.4 3.0 31 8.4 WNW 15 19 8 10 1016.1 1016.1 0.0
15/07:00pm 21.8 16.4 2.5 28 9.1 NW 20 22 11 12 1015.7 1015.7 0.0
15/06:30pm 21.7 16.5 2.4 28 9.1 NW 19 20 10 11 1015.4 1015.4 0.0
15/06:00pm 23.5 19.3 1.8 24 10.3 NW 13 19 7 10 1015.2 1015.2 0.0
15/05:30pm 27.8 22.5 -0.3 16 13.2 NNW 17 22 9 12 1015.2 1015.2 0.0
15/05:00pm 29.5 24.3 0.2 15 14.1 NNW 17 22 9 12 1015.3 1015.3 0.0
15/04:30pm 29.3 22.2 -0.9 14 14.2 NNW 26 33 14 18 1015.2 1015.2 0.0
15/04:00pm 29.6 22.6 -0.7 14 14.3 NNW 26 33 14 18 1015.2 1015.2 0.0
15/03:30pm 29.2 22.1 -1.0 14 14.1 NW 26 35 14 19 1015.7 1015.7 0.0
15/03:00pm 29.8 22.4 -0.5 14 14.4 NW 28 39 15 21 1016.0 1016.0 0.0
15/02:30pm 29.1 20.9 -1.1 14 14.1 NW 32 43 17 23 1016.1 1016.1 0.0
15/02:00pm 29.9 20.8 -0.5 14 14.4 NW 37 48 20 26 1016.2 1016.2 0.0
15/01:30pm 30.1 20.9 -1.3 13 14.7 NW 37 56 20 30 1016.5 1016.5 0.0
15/01:28pm 30.2 21.0 -1.2 13 14.8 NW 37 56 20 30 1016.6 1016.6 0.0
15/01:00pm 30.2 20.8 -0.2 14 14.6 NW 39 54 21 29 1017.2 1017.2 0.0
15/12:37pm 28.9 20.6 -0.3 15 13.8 NW 33 54 18 29 1017.8 1017.8 0.0
15/12:30pm 27.1 18.6 0.8 18 12.5 NW 35 50 19 27 1017.9 1017.9 0.0
15/12:00pm 26.8 17.1 0.5 18 12.4 NW 41 56 22 30 1018.6 1018.6 0.0
15/11:30am 26.2 16.7 1.5 20 11.8 WNW 41 59 22 32 1019.2 1019.2 0.0
15/11:26am 26.2 16.7 1.5 20 11.8 WNW 41 59 22 32 1019.2 1019.2 0.0
15/11:00am 27.6 18.1 1.9 19 12.5 WNW 41 56 22 30 1019.5 1019.5 0.0
15/10:36am 25.8 15.8 1.2 20 11.7 NW 43 61 23 33 1019.2 1019.2 0.0
15/10:30am 26.4 15.8 0.9 19 12.1 NW 46 61 25 33 1019.2 1019.2 0.0
15/10:12am 26.8 16.3 1.3 19 12.2 NW 46 65 25 35 1019.3 1019.3 0.0
15/10:00am 26.0 14.3 1.3 20 11.8 NW 52 67 28 36 1019.3 1019.3 0.0
15/09:32am 25.4 15.8 3.4 24 10.9 NW 43 61 23 33 1019.4 1019.4 0.0
15/09:30am 25.3 15.5 3.3 24 10.8 NW 44 61 24 33 1019.4 1019.4 0.0
15/09:21am 24.9 15.6 3.0 24 10.7 NW 41 61 22 33 1019.5 1019.5 0.0
15/09:00am 24.0 14.8 3.3 26 10.1 NW 41 57 22 31 1019.5 1019.5 0.0
15/08:41am 23.9 15.2 2.1 24 10.4 NW 37 56 20 30 1019.6 1019.6 0.0
15/08:30am 24.6 15.5 2.1 23 10.8 NNW 39 54 21 29 1019.6 1019.6 0.0
15/08:00am 23.5 15.7 1.8 24 10.3 NNW 32 43 17 23 1019.7 1019.7 0.0
15/07:30am 20.9 14.5 3.2 31 8.4 N 26 39 14 21 1019.4 1019.4 0.0
15/07:00am 22.0 14.1 2.2 27 9.3 NNW 33 44 18 24 1019.2 1019.2 0.0
15/06:31am 22.0 14.9 1.6 26 9.5 NNW 28 46 15 25 1019.0 1019.0 0.0
15/06:30am 21.9 14.8 1.6 26 9.4 NNW 28 43 15 23 1019.0 1019.0 0.0
15/06:00am 18.2 12.4 4.4 40 6.6 N 24 33 13 18 1019.0 1019.0 0.0
15/05:30am 18.5 13.8 5.0 41 6.5 N 19 30 10 16 1019.0 1019.0 0.0
15/05:00am 18.1 13.1 4.7 41 6.4 N 20 28 11 15 1018.9 1018.9 0.0
15/04:30am 19.1 13.3 4.5 38 7.0 N 24 35 13 19 1018.8 1018.8 0.0
15/04:00am 19.2 12.7 4.6 38 7.1 NNE 28 39 15 21 1018.7 1018.7 0.0
15/03:30am 19.0 12.9 4.7 39 6.9 N 26 32 14 17 1018.9 1018.9 0.0
15/03:00am 17.1 12.3 5.4 46 5.6 NNE 20 26 11 14 1019.2 1019.2 0.0
15/02:30am 17.9 12.3 5.2 43 6.1 NNE 24 33 13 18 1019.4 1019.4 0.0
15/02:00am 18.6 12.9 5.1 41 6.6 N 24 30 13 16 1019.9 1019.9 0.0
15/01:30am 19.0 13.3 5.1 40 6.8 N 24 32 13 17 1020.2 1020.2 0.0
15/01:00am 20.0 14.3 4.9 37 7.4 N 24 33 13 18 1020.4 1020.4 0.0
15/12:30am 19.0 13.9 5.8 42 6.5 N 22 28 12 15 1020.6 1020.7 0.0
15/12:00am 15.3 12.4 8.1 62 3.6 NNE 13 19 7 10 1021.0 1021.1 0.0
 
Date/Time
CST
Temp
°C
App
Temp
°C
Dew
Point
°C
Rel
Hum
%
Delta-T
°C
Wind Press
QNH
hPa
Press
MSL
hPa
Rain since
9am
mm
Dir  Spd
km/h
Gust
km/h
Spd
kts
Gust
kts
14/11:30pm 14.8 11.7 7.4 61 3.7 NNE 13 19 7 10 1021.1 1021.2 0.0
14/11:00pm 15.5 11.8 7.8 60 3.9 N 17 19 9 10 1021.0 1021.1 0.0
14/10:30pm 14.9 11.2 7.9 63 3.5 N 17 20 9 11 1021.4 1021.5 0.0
14/10:00pm 15.8 12.5 8.1 60 3.9 N 15 17 8 9 1022.2 1022.3 0.0
14/09:30pm 14.6 14.2 8.1 65 3.3 CALM 0 0 0 0 1022.6 1022.6 0.0
14/09:00pm 13.9 13.4 7.9 67 3.0 CALM 0 0 0 0 1022.9 1022.9 0.0
14/08:30pm 13.1 12.5 7.3 68 2.8 CALM 0 0 0 0 1022.9 1022.9 0.0
14/08:00pm 14.9 13.6 7.5 61 3.7 NW 4 6 2 3 1022.9 1022.9 0.0
14/07:30pm 14.6 11.9 7.4 62 3.6 NW 11 13 6 7 1022.7 1022.7 0.0
14/07:00pm 15.8 12.4 7.6 58 4.1 NW 15 17 8 9 1022.2 1022.3 0.0
14/06:30pm 16.4 13.6 8.4 59 4.1 NNW 13 17 7 9 1022.3 1022.4 0.0
14/06:29pm 16.4 13.9 8.1 58 4.2 NNW 11 17 6 9 1022.3 1022.4 0.0
14/06:00pm 21.4 19.9 8.3 43 6.9 NNW 6 9 3 5 1022.3 1022.4 0.0
14/05:30pm 25.0 22.6 7.2 32 9.4 NNW 9 13 5 7 1022.3 1022.4 0.0
14/05:00pm 27.0 23.6 5.9 26 11.0 NW 13 17 7 9 1022.3 1022.4 0.0
14/04:30pm 27.6 23.0 5.8 25 11.3 NW 19 26 10 14 1022.3 1022.4 0.0
14/04:00pm 28.4 23.9 5.9 24 11.8 NW 19 24 10 13 1022.5 1022.5 0.0
14/03:30pm 28.4 23.9 5.9 24 11.8 NW 19 28 10 15 1022.5 1022.5 0.0
14/03:00pm 28.5 23.9 6.6 25 11.6 WNW 20 32 11 17 1022.3 1022.4 0.0
14/02:30pm 29.2 25.2 6.6 24 12.0 NW 17 28 9 15 1022.3 1022.4 0.0
14/02:00pm 28.5 24.6 7.1 26 11.5 NNW 17 28 9 15 1022.6 1022.6 0.0
14/01:30pm 28.7 24.2 6.1 24 11.9 NNW 19 30 10 16 1023.2 1023.2 0.0
14/01:00pm 28.2 23.6 6.3 25 11.6 NNW 20 30 11 16 1023.5 1023.5 0.0
14/12:30pm 28.0 23.3 6.2 25 11.4 NNW 20 30 11 16 1024.2 1024.2 0.0
14/12:00pm 28.2 23.7 6.3 25 11.5 N 19 28 10 15 1024.6 1024.6 0.0
14/11:30am 27.3 22.7 6.7 27 10.9 N 20 28 11 15 1025.0 1025.0 0.0
14/11:00am 25.1 19.3 6.3 30 9.8 N 26 33 14 18 1025.1 1025.1 0.0
14/10:30am 23.5 17.7 6.3 33 8.8 N 26 32 14 17 1025.5 1025.5 0.0
14/10:00am 21.6 16.3 6.7 38 7.6 NNE 24 30 13 16 1026.1 1026.1 0.0
14/09:30am 19.3 14.3 6.4 43 6.4 NNE 22 30 12 16 1026.4 1026.4 0.0
14/09:00am 17.4 13.8 6.6 49 5.3 NNE 15 20 8 11 1026.9 1026.9 0.0
14/08:30am 14.8 12.4 7.1 60 3.8 NNE 9 13 5 7 1027.0 1027.0 0.0
14/08:00am 12.4 9.7 7.5 72 2.4 N 11 15 6 8 1026.9 1026.9 0.0
14/07:30am 10.8 7.9 8.0 83 1.4 N 13 15 7 8 1026.9 1026.9 0.0
14/07:00am 7.3 4.1 6.7 96 0.3 NW 13 13 7 7 1027.0 1027.0 0.0
14/06:30am 3.4 1.8 2.7 95 0.3 CALM 0 0 0 0 1026.6 1026.6 0.0
14/06:00am 3.2 1.6 2.3 94 0.4 CALM 0 0 0 0 1026.6 1026.6 0.0
14/05:30am 3.2 1.6 2.2 93 0.4 CALM 0 0 0 0 1026.7 1026.7 0.0
14/05:00am 3.8 2.3 2.8 93 0.4 CALM 0 0 0 0 1026.6 1026.6 0.0
14/04:30am 4.4 3.0 3.5 94 0.4 CALM 0 0 0 0 1026.7 1026.7 0.0
14/04:00am 4.0 2.5 3.0 93 0.4 CALM 0 0 0 0 1026.6 1026.6 0.0
14/03:30am 5.5 4.3 4.6 94 0.4 CALM 0 0 0 0 1026.7 1026.7 0.0
14/03:00am 6.6 4.5 5.7 94 0.4 SW 6 6 3 3 1026.9 1026.9 0.0
14/02:30am 7.0 4.4 6.1 94 0.4 SW 9 9 5 5 1027.3 1027.3 0.0
14/02:00am 7.2 4.6 6.3 94 0.4 SW 9 9 5 5 1027.7 1027.7 0.0
14/01:30am 7.2 4.3 6.3 94 0.4 SW 11 11 6 6 1028.0 1028.0 0.0
14/01:00am 7.2 4.6 6.1 93 0.5 SW 9 11 5 6 1028.2 1028.2 0.0
14/12:30am 7.9 5.9 7.0 94 0.4 SSW 7 9 4 5 1028.3 1028.4 0.0
14/12:00am 8.4 6.1 7.5 94 0.4 SSW 9 9 5 5 1028.3 1028.4 0.0
 
Date/Time
CST
Temp
°C
App
Temp
°C
Dew
Point
°C
Rel
Hum
%
Delta-T
°C
Wind Press
QNH
hPa
Press
MSL
hPa
Rain since
9am
mm
Dir  Spd
km/h
Gust
km/h
Spd
kts
Gust
kts
13/11:30pm 8.2 5.4 7.1 93 0.5 SW 11 13 6 7 1028.4 1028.5 0.0
13/11:00pm 8.7 6.4 7.6 93 0.5 SW 9 9 5 5 1028.4 1028.5 0.0
13/10:30pm 8.8 5.8 7.7 93 0.5 SW 13 15 7 8 1028.4 1028.5 0.0
13/10:00pm 8.8 6.5 7.6 92 0.6 SW 9 13 5 7 1028.4 1028.5 0.0
13/09:30pm 9.5 7.0 8.3 92 0.6 SW 11 15 6 8 1028.1 1028.1 0.0
13/09:00pm 10.2 7.9 9.0 92 0.6 WSW 11 13 6 7 1027.9 1027.9 0.0
13/08:30pm 9.2 6.5 7.5 89 0.8 SW 11 13 6 7 1027.9 1027.9 0.0
13/08:00pm 10.0 7.9 8.1 88 0.9 SW 9 11 5 6 1027.8 1027.8 0.0
13/07:30pm 11.1 8.7 8.5 84 1.3 SW 11 11 6 6 1027.7 1027.7 0.0
13/07:00pm 11.7 9.2 8.4 80 1.6 SW 11 13 6 7 1027.4 1027.4 0.0
13/06:30pm 14.2 11.8 8.8 70 2.7 SW 11 15 6 8 1027.1 1027.1 0.0
13/06:00pm 17.0 14.4 9.2 60 4.0 SSW 13 19 7 10 1026.8 1026.8 0.0
13/05:30pm 19.2 13.8 4.6 38 7.0 S 22 30 12 16 1026.6 1026.6 0.0
13/05:00pm 21.0 15.6 2.3 29 8.8 S 20 30 11 16 1026.4 1026.4 0.0
13/04:30pm 21.5 17.0 7.0 39 7.4 S 20 28 11 15 1026.4 1026.4 0.0
13/04:00pm 22.0 17.7 9.2 44 6.9 S 22 30 12 16 1026.3 1026.3 0.0
13/03:30pm 22.9 18.8 6.2 34 8.5 S 17 24 9 13 1026.1 1026.1 0.0
13/03:00pm 22.3 19.1 6.9 37 7.9 SSE 13 22 7 12 1025.7 1025.7 0.0
13/02:30pm 22.0 18.7 8.2 41 7.2 SSW 15 22 8 12 1025.9 1025.9 0.0
13/02:00pm 21.8 17.9 6.9 38 7.7 S 17 24 9 13 1025.9 1025.9 0.0
13/01:30pm 21.5 18.5 9.1 45 6.6 S 15 22 8 12 1026.2 1026.2 0.0
13/01:00pm 21.9 18.1 9.1 44 6.9 S 19 28 10 15 1026.3 1026.3 0.0
13/12:30pm 22.0 18.8 9.9 46 6.5 SSW 17 28 9 15 1026.8 1026.8 0.0
13/12:00pm 21.1 18.1 9.4 47 6.2 S 15 20 8 11 1026.8 1026.8 0.0
13/11:30am 20.2 17.6 9.5 50 5.7 SSE 13 19 7 10 1026.9 1026.9 0.0
13/11:00am 19.0 16.8 9.2 53 5.2 S 11 17 6 9 1027.2 1027.2 0.0
13/10:30am 18.8 16.1 9.0 53 5.1 SSW 13 22 7 12 1027.5 1027.5 0.0
13/10:00am 17.5 15.4 8.4 55 4.7 S 9 15 5 8 1027.3 1027.3 0.0
13/09:30am 15.8 13.5 7.6 58 4.1 S 9 13 5 7 1027.5 1027.5 0.0
13/09:00am 14.2 12.2 7.3 63 3.4 SSE 7 11 4 6 1027.7 1027.7 0.0
13/08:30am 11.6 11.2 8.1 79 1.7 CALM 0 0 0 0 1027.6 1027.6 0.0
13/08:00am 8.9 7.4 6.7 86 1.0 NE 4 6 2 3 1027.3 1027.3 0.0
13/07:30am 7.3 5.2 6.7 96 0.3 NNE 7 9 4 5 1026.8 1026.8 0.0
13/07:00am 5.2 1.9 4.8 97 0.2 N 11 13 6 7 1026.3 1026.3 0.0

Other formats

Comma delimited format used in spreadsheet applications
http://www.bom.gov.au/fwo/IDS60801/IDS60801.95670.axf

JavaScript Object Notation format (JSON) in row-major order
http://www.bom.gov.au/fwo/IDS60801/IDS60801.95670.json

Data quality

Most of these data are generated automatically and are frequently updated. Quality checks on data are not normally performed. It is possible for incorrect values to appear. Refer to information at About Latest Weather Observations and please check the disclaimer before using these data.